createdAt,value
2022-07-30T00:02:25.888Z,21.70
2022-07-30T00:05:12.565Z,21.80
2022-07-30T00:07:59.456Z,21.90
2022-07-30T00:10:46.213Z,21.70
2022-07-30T00:13:36.611Z,21.50
2022-07-30T00:16:24.756Z,21.50
2022-07-30T00:19:11.442Z,21.40
2022-07-30T00:21:58.160Z,21.40
2022-07-30T00:24:45.050Z,21.30
2022-07-30T00:27:34.812Z,21.30
2022-07-30T00:30:21.870Z,21.20
2022-07-30T00:33:10.034Z,20.80
2022-07-30T00:35:57.338Z,20.60
2022-07-30T00:38:44.424Z,20.60
2022-07-30T00:41:30.937Z,20.40
2022-07-30T00:44:17.720Z,20.10
2022-07-30T00:47:04.876Z,19.70
2022-07-30T00:49:52.877Z,19.50
2022-07-30T00:52:40.498Z,19.20
2022-07-30T00:55:26.918Z,19.20
2022-07-30T00:58:13.808Z,19.10
2022-07-30T01:01:01.105Z,19.20
2022-07-30T01:03:48.230Z,19.30
2022-07-30T01:06:36.453Z,19.20
2022-07-30T01:09:23.267Z,19.30
2022-07-30T01:12:12.082Z,19.20
2022-07-30T01:14:59.189Z,19.30
2022-07-30T01:17:52.853Z,19.20
2022-07-30T01:20:44.194Z,19.10
2022-07-30T01:23:39.135Z,18.90
2022-07-30T01:26:32.681Z,18.80
2022-07-30T01:29:20.905Z,18.80
2022-07-30T01:32:09.879Z,18.80
2022-07-30T01:34:58.629Z,18.70
2022-07-30T01:37:46.203Z,18.60
2022-07-30T01:40:33.664Z,18.20
2022-07-30T01:43:24.619Z,18.20
2022-07-30T01:46:12.218Z,18.20
2022-07-30T01:48:59.981Z,17.90
2022-07-30T01:51:52.500Z,18.00
2022-07-30T01:54:41.221Z,18.10
2022-07-30T01:57:28.347Z,18.20
2022-07-30T02:00:18.221Z,18.30
2022-07-30T02:03:08.561Z,18.50
2022-07-30T02:06:01.190Z,18.70
2022-07-30T02:08:52.603Z,18.90
2022-07-30T02:12:02.174Z,19.00
2022-07-30T02:14:53.292Z,19.00
2022-07-30T02:17:45.468Z,19.00
2022-07-30T02:20:36.006Z,19.10
2022-07-30T02:23:29.298Z,19.10
2022-07-30T02:26:22.122Z,19.10
2022-07-30T02:29:11.571Z,18.90
2022-07-30T02:32:01.764Z,18.90
2022-07-30T02:34:56.929Z,18.60
2022-07-30T02:37:45.814Z,18.60
2022-07-30T02:40:33.132Z,18.50
2022-07-30T02:43:24.996Z,18.30
2022-07-30T02:46:14.329Z,18.30
2022-07-30T02:49:25.236Z,18.40
2022-07-30T02:52:16.882Z,18.30
2022-07-30T02:55:04.929Z,18.20
2022-07-30T02:57:54.392Z,18.40
2022-07-30T03:00:42.005Z,18.40
2022-07-30T03:03:29.940Z,18.50
2022-07-30T03:06:18.360Z,18.60
2022-07-30T03:09:08.241Z,18.30
2022-07-30T03:11:57.364Z,18.20
2022-07-30T03:14:44.454Z,18.30
2022-07-30T03:17:38.489Z,18.50
2022-07-30T03:20:29.077Z,18.60
2022-07-30T03:23:18.826Z,18.50
2022-07-30T03:26:09.561Z,18.60
2022-07-30T03:28:56.231Z,18.50
2022-07-30T03:31:43.582Z,18.60
2022-07-30T03:34:34.360Z,18.50
2022-07-30T03:37:21.933Z,18.50
2022-07-30T03:40:10.096Z,18.60
2022-07-30T03:42:58.957Z,18.50
2022-07-30T03:45:46.683Z,18.50
2022-07-30T03:48:39.570Z,18.60
2022-07-30T03:51:32.963Z,18.30
2022-07-30T03:54:20.718Z,18.20
2022-07-30T03:57:23.958Z,18.20
2022-07-30T04:00:17.202Z,18.20
2022-07-30T04:03:10.054Z,17.70
2022-07-30T04:06:08.530Z,17.60
2022-07-30T04:08:55.410Z,17.70
2022-07-30T04:11:42.536Z,17.80
2022-07-30T04:14:41.439Z,17.80
2022-07-30T04:17:36.223Z,17.60
2022-07-30T04:20:28.621Z,17.50
2022-07-30T04:23:16.813Z,17.50
2022-07-30T04:26:04.872Z,17.50
2022-07-30T04:28:52.455Z,17.60
2022-07-30T04:31:40.977Z,17.90
2022-07-30T04:34:52.639Z,18.20
2022-07-30T04:37:58.111Z,18.30
2022-07-30T04:40:45.872Z,18.30
2022-07-30T04:43:32.941Z,18.50
2022-07-30T04:46:19.980Z,18.70
2022-07-30T04:49:11.603Z,18.80
2022-07-30T04:52:00.474Z,19.10
2022-07-30T04:54:50.477Z,19.20
2022-07-30T04:57:39.664Z,19.40
2022-07-30T05:00:26.499Z,19.50
2022-07-30T05:03:15.414Z,19.90
2022-07-30T05:06:07.531Z,20.20
2022-07-30T05:08:59.435Z,20.40
2022-07-30T05:11:51.933Z,20.60
2022-07-30T05:14:38.692Z,20.90
2022-07-30T05:17:25.554Z,21.10
2022-07-30T05:20:13.133Z,21.30
2022-07-30T05:23:26.009Z,21.90
2022-07-30T05:26:43.452Z,22.50
2022-07-30T05:29:32.482Z,23.20
2022-07-30T05:32:29.517Z,23.50
2022-07-30T05:35:19.505Z,23.90
2022-07-30T05:38:07.126Z,24.20
2022-07-30T05:41:05.298Z,24.10
2022-07-30T05:44:39.353Z,24.10
2022-07-30T05:47:26.501Z,24.40
2022-07-30T05:50:13.873Z,24.90
2022-07-30T05:53:00.922Z,24.60
2022-07-30T05:56:13.249Z,25.10
2022-07-30T05:59:28.952Z,25.60
2022-07-30T06:02:25.637Z,25.80
2022-07-30T06:05:41.448Z,26.40
2022-07-30T06:08:27.994Z,26.60
2022-07-30T06:11:15.289Z,26.80
2022-07-30T06:14:02.358Z,27.30
2022-07-30T06:16:49.245Z,27.30
2022-07-30T06:19:37.688Z,27.60
2022-07-30T06:22:26.213Z,27.70
2022-07-30T06:25:14.886Z,27.90
2022-07-30T06:28:21.280Z,27.90
2022-07-30T06:31:12.540Z,28.40
2022-07-30T06:33:59.306Z,28.30
2022-07-30T06:36:51.509Z,28.70
2022-07-30T06:39:58.001Z,28.70
2022-07-30T06:42:59.238Z,28.80
2022-07-30T06:46:03.503Z,28.90
2022-07-30T06:48:56.519Z,29.40
2022-07-30T06:51:43.510Z,29.60
2022-07-30T06:54:31.936Z,29.70
2022-07-30T06:57:32.324Z,29.40
2022-07-30T07:00:23.312Z,29.30
2022-07-30T07:03:11.940Z,29.60
2022-07-30T07:05:58.588Z,29.90
2022-07-30T07:08:45.448Z,30.20
2022-07-30T07:11:37.440Z,30.40
2022-07-30T07:14:28.789Z,30.90
2022-07-30T07:17:15.503Z,30.50
2022-07-30T07:20:17.295Z,29.40
2022-07-30T07:23:12.678Z,28.50
2022-07-30T07:26:01.856Z,27.90
2022-07-30T07:28:50.565Z,27.40
2022-07-30T07:32:06.001Z,27.10
2022-07-30T07:34:43.625Z,26.90
2022-07-30T07:37:33.785Z,26.90
2022-07-30T07:40:51.501Z,27.00
2022-07-30T07:44:01.264Z,27.10
2022-07-30T07:46:52.275Z,27.60
2022-07-30T07:49:40.214Z,28.40
2022-07-30T07:52:27.217Z,29.40
2022-07-30T07:55:14.168Z,30.30
2022-07-30T07:58:01.405Z,30.90
2022-07-30T08:00:50.908Z,31.40
2022-07-30T08:03:42.490Z,31.60
2022-07-30T08:06:49.143Z,31.90
2022-07-30T08:09:55.314Z,32.40
2022-07-30T08:13:07.780Z,32.00
2022-07-30T08:16:34.673Z,31.90
2022-07-30T08:19:48.143Z,32.10
2022-07-30T08:22:41.261Z,32.50
2022-07-30T08:25:28.097Z,32.50
2022-07-30T08:28:34.160Z,32.50
2022-07-30T08:31:21.722Z,32.80
2022-07-30T08:34:09.989Z,33.20
2022-07-30T08:36:57.039Z,33.40
2022-07-30T08:39:44.015Z,33.30
2022-07-30T08:42:32.095Z,33.40
2022-07-30T08:45:19.206Z,33.80
2022-07-30T08:48:16.290Z,33.60
2022-07-30T08:51:06.961Z,33.90
2022-07-30T08:53:56.253Z,33.80
2022-07-30T09:05:22.432Z,33.30
2022-07-30T09:08:10.642Z,33.30
2022-07-30T09:10:57.230Z,33.30
2022-07-30T09:13:44.617Z,33.50
2022-07-30T09:16:32.961Z,33.20
2022-07-30T09:19:21.665Z,33.50
2022-07-30T09:22:08.578Z,33.50
2022-07-30T09:25:16.577Z,33.80
2022-07-30T09:28:30.849Z,33.20
2022-07-30T09:35:14.086Z,33.80
2022-07-30T09:38:19.398Z,34.20
2022-07-30T09:41:17.217Z,34.20
2022-07-30T09:44:29.687Z,34.40
2022-07-30T09:47:31.563Z,34.40
2022-07-30T09:50:29.926Z,34.50
2022-07-30T09:53:18.976Z,34.20
2022-07-30T09:56:27.706Z,34.10
2022-07-30T09:59:35.066Z,34.30
2022-07-30T10:02:29.427Z,34.20
2022-07-30T10:05:34.386Z,33.70
2022-07-30T10:08:41.669Z,32.70
2022-07-30T10:11:31.343Z,31.70
2022-07-30T10:14:30.625Z,31.40
2022-07-30T10:17:18.835Z,31.90
2022-07-30T10:20:18.877Z,32.60
2022-07-30T10:23:27.179Z,33.20
2022-07-30T10:26:35.752Z,33.70
2022-07-30T10:29:51.562Z,33.50
2022-07-30T10:32:39.420Z,34.30
2022-07-30T10:35:34.930Z,34.50
2022-07-30T10:38:29.948Z,34.80
2022-07-30T10:41:44.304Z,34.20
2022-07-30T10:45:10.292Z,34.20
2022-07-30T10:48:05.924Z,34.10
2022-07-30T10:50:55.961Z,33.20
2022-07-30T10:53:45.881Z,32.30
2022-07-30T10:56:32.891Z,31.70
2022-07-30T10:59:20.229Z,32.40
2022-07-30T11:02:11.969Z,33.20
2022-07-30T11:05:27.362Z,33.50
2022-07-30T11:08:37.562Z,33.40
2022-07-30T11:12:04.922Z,32.80
2022-07-30T11:15:07.880Z,32.70
2022-07-30T11:18:12.926Z,33.30
2022-07-30T11:21:21.447Z,32.80
2022-07-30T11:24:45.508Z,32.50
2022-07-30T11:27:37.016Z,33.20
2022-07-30T11:30:41.960Z,33.20
2022-07-30T11:33:39.149Z,33.60
2022-07-30T11:36:26.607Z,33.80
2022-07-30T11:39:13.025Z,33.70
2022-07-30T11:42:27.098Z,33.70
2022-07-30T11:45:29.534Z,33.70
2022-07-30T11:48:19.209Z,33.70
2022-07-30T11:51:08.600Z,34.00
2022-07-30T11:54:03.566Z,34.20
2022-07-30T11:56:52.534Z,34.50
2022-07-30T11:59:54.370Z,34.70
2022-07-30T12:02:42.007Z,34.80
2022-07-30T12:05:29.285Z,34.40
2022-07-30T12:08:36.171Z,33.50
2022-07-30T12:11:23.240Z,33.70
2022-07-30T12:14:10.370Z,33.60
2022-07-30T12:16:59.545Z,33.40
2022-07-30T12:19:48.057Z,33.10
2022-07-30T12:22:35.466Z,33.00
2022-07-30T12:25:23.457Z,33.40
2022-07-30T12:28:11.379Z,33.30
2022-07-30T12:31:00.165Z,33.30
2022-07-30T12:33:47.458Z,33.20
2022-07-30T12:36:35.754Z,33.30
2022-07-30T12:39:24.777Z,32.90
2022-07-30T12:42:21.085Z,32.60
2022-07-30T12:45:08.821Z,32.50
2022-07-30T12:47:55.418Z,32.50
2022-07-30T12:50:42.472Z,32.60
2022-07-30T12:53:30.874Z,32.70
2022-07-30T12:56:19.031Z,32.50
2022-07-30T12:59:21.414Z,32.40
2022-07-30T13:02:08.490Z,32.10
2022-07-30T13:05:10.136Z,32.00
2022-07-30T13:07:59.718Z,31.80
2022-07-30T13:10:57.063Z,31.50
2022-07-30T13:13:46.198Z,31.50
2022-07-30T13:16:35.359Z,31.50
2022-07-30T13:19:22.273Z,31.40
2022-07-30T13:22:09.700Z,31.40
2022-07-30T13:24:56.610Z,31.40
2022-07-30T13:27:43.587Z,31.40
2022-07-30T13:30:30.351Z,31.20
2022-07-30T13:33:18.855Z,31.20
2022-07-30T13:36:05.759Z,31.20
2022-07-30T13:38:52.696Z,31.20
2022-07-30T13:41:41.616Z,31.10
2022-07-30T13:44:28.265Z,31.10
2022-07-30T13:47:15.058Z,31.10
2022-07-30T13:50:03.354Z,31.00
2022-07-30T13:52:50.207Z,31.00
2022-07-30T13:55:37.238Z,31.00
2022-07-30T13:58:23.881Z,30.90
2022-07-30T14:01:15.815Z,30.90
2022-07-30T14:04:05.820Z,30.80
2022-07-30T14:06:53.834Z,30.80
2022-07-30T14:09:46.850Z,30.80
2022-07-30T14:12:35.072Z,30.80
2022-07-30T14:15:21.777Z,30.80
2022-07-30T14:18:08.485Z,30.90
2022-07-30T14:20:55.294Z,31.00
2022-07-30T14:23:43.074Z,30.90
2022-07-30T14:26:33.862Z,30.90
2022-07-30T14:29:22.941Z,30.70
2022-07-30T14:32:09.858Z,30.70
2022-07-30T14:34:58.847Z,30.70
2022-07-30T14:37:45.824Z,30.50
2022-07-30T14:40:33.786Z,30.20
2022-07-30T14:43:20.556Z,30.20
2022-07-30T14:46:07.797Z,30.30
2022-07-30T14:48:54.522Z,30.20
2022-07-30T14:51:41.449Z,30.30
2022-07-30T14:54:28.198Z,30.30
2022-07-30T14:57:15.904Z,30.20
2022-07-30T15:00:03.893Z,30.20
2022-07-30T15:02:50.585Z,30.30
2022-07-30T15:05:37.206Z,30.30
2022-07-30T15:08:24.191Z,30.50
2022-07-30T15:11:10.730Z,30.40
2022-07-30T15:13:59.377Z,30.30
2022-07-30T15:16:46.081Z,30.20
2022-07-30T15:19:33.176Z,30.20
2022-07-30T15:22:20.177Z,30.30
2022-07-30T15:25:08.868Z,30.20
2022-07-30T15:27:55.457Z,30.20
2022-07-30T15:30:43.659Z,30.20
2022-07-30T15:33:30.712Z,30.10
2022-07-30T15:36:22.626Z,30.00
2022-07-30T15:39:09.078Z,30.00
2022-07-30T15:41:56.221Z,30.20
2022-07-30T15:44:48.783Z,30.10
2022-07-30T15:47:37.409Z,30.20
2022-07-30T15:50:24.509Z,30.30
2022-07-30T15:53:17.296Z,30.30
2022-07-30T15:56:04.499Z,30.20
2022-07-30T15:58:51.241Z,30.10
2022-07-30T16:01:38.486Z,30.00
2022-07-30T16:04:32.048Z,29.90
2022-07-30T16:07:19.209Z,29.90
2022-07-30T16:10:06.849Z,29.90
2022-07-30T16:12:53.453Z,29.90
2022-07-30T16:15:39.869Z,29.90
2022-07-30T16:18:26.422Z,29.90
2022-07-30T16:21:14.697Z,30.00
2022-07-30T16:24:01.058Z,29.90
2022-07-30T16:26:47.549Z,29.90
2022-07-30T16:29:33.870Z,29.90
2022-07-30T16:32:20.376Z,29.80
2022-07-30T16:35:12.808Z,29.90
2022-07-30T16:38:02.732Z,29.90
2022-07-30T16:40:49.416Z,29.90
2022-07-30T16:43:36.076Z,29.80
2022-07-30T16:46:24.387Z,29.90
2022-07-30T16:49:11.432Z,29.80
2022-07-30T16:51:58.329Z,29.70
2022-07-30T16:54:46.689Z,29.70
2022-07-30T16:57:40.578Z,29.80
2022-07-30T17:00:36.052Z,29.70
2022-07-30T17:03:22.913Z,29.60
2022-07-30T17:06:09.862Z,29.60
2022-07-30T17:08:56.674Z,29.60
2022-07-30T17:11:47.160Z,29.60
2022-07-30T17:14:39.117Z,29.50
2022-07-30T17:17:25.709Z,29.50
2022-07-30T17:20:14.340Z,29.40
2022-07-30T17:23:00.798Z,29.20
2022-07-30T17:25:47.383Z,29.20
2022-07-30T17:28:35.314Z,29.10
2022-07-30T17:31:22.105Z,28.90
2022-07-30T17:34:10.463Z,28.90
2022-07-30T17:36:57.453Z,28.90
2022-07-30T17:40:26.619Z,28.80
2022-07-30T17:42:51.077Z,28.70
2022-07-30T17:45:39.020Z,28.70
2022-07-30T17:48:25.579Z,28.70
2022-07-30T17:51:12.621Z,28.70
2022-07-30T17:53:59.493Z,28.80
2022-07-30T17:56:46.262Z,28.80
2022-07-30T17:59:33.438Z,28.80
2022-07-30T18:02:28.758Z,28.80
2022-07-30T18:05:15.859Z,28.70
2022-07-30T18:08:02.759Z,28.70
2022-07-30T18:10:50.148Z,28.70
2022-07-30T18:13:36.772Z,28.70
2022-07-30T18:16:23.998Z,28.50
2022-07-30T18:19:22.789Z,28.40
2022-07-30T18:22:14.881Z,28.30
2022-07-30T18:25:01.820Z,28.40
2022-07-30T18:27:49.040Z,28.40
2022-07-30T18:30:35.238Z,28.40
2022-07-30T18:33:22.236Z,28.30
2022-07-30T18:36:18.512Z,28.30
2022-07-30T18:39:25.367Z,28.20
2022-07-30T18:42:11.840Z,28.10
2022-07-30T18:44:58.773Z,28.20
2022-07-30T18:47:47.129Z,28.00
2022-07-30T18:50:34.041Z,27.90
2022-07-30T18:53:22.419Z,27.80
2022-07-30T18:56:09.300Z,27.70
2022-07-30T18:58:56.233Z,27.60
2022-07-30T19:01:43.779Z,27.40
2022-07-30T19:04:31.281Z,27.20
2022-07-30T19:07:18.238Z,27.20
2022-07-30T19:10:08.055Z,27.20
2022-07-30T19:12:54.728Z,27.20
2022-07-30T19:15:41.094Z,27.10
2022-07-30T19:18:28.037Z,26.80
2022-07-30T19:21:14.549Z,26.20
2022-07-30T19:24:01.460Z,26.10
2022-07-30T19:26:49.566Z,25.80
2022-07-30T19:29:36.825Z,25.60
2022-07-30T19:32:23.150Z,25.70
2022-07-30T19:35:13.589Z,25.60
2022-07-30T19:38:01.782Z,25.40
2022-07-30T19:43:59.023Z,24.80
2022-07-30T19:46:46.743Z,24.70
2022-07-30T19:49:43.374Z,24.60
2022-07-30T19:52:30.843Z,24.60
2022-07-30T19:55:30.954Z,24.40
2022-07-30T19:58:21.960Z,24.20
2022-07-30T20:01:14.459Z,24.30
2022-07-30T20:04:01.864Z,24.40
2022-07-30T20:06:49.088Z,24.30
2022-07-30T20:09:35.720Z,24.20
2022-07-30T20:12:24.310Z,24.10
2022-07-30T20:15:14.700Z,24.10
2022-07-30T20:18:03.280Z,24.10
2022-07-30T20:20:50.143Z,24.20
2022-07-30T20:23:37.879Z,24.10
2022-07-30T20:26:29.103Z,23.90
2022-07-30T20:29:19.448Z,23.60
2022-07-30T20:32:08.356Z,23.40
2022-07-30T20:34:56.912Z,23.30
2022-07-30T20:37:54.893Z,23.40
2022-07-30T20:40:46.494Z,23.30
2022-07-30T20:43:33.069Z,23.00
2022-07-30T20:46:34.962Z,22.90
2022-07-30T20:49:28.950Z,22.80
2022-07-30T20:52:23.354Z,22.80
2022-07-30T20:55:14.561Z,22.80
2022-07-30T20:58:09.923Z,23.00
2022-07-30T21:01:20.426Z,23.00
2022-07-30T21:04:40.550Z,22.90
2022-07-30T21:26:04.795Z,21.80
2022-07-30T21:28:53.981Z,21.70
2022-07-30T21:32:01.580Z,21.70
2022-07-30T21:34:47.341Z,21.50
2022-07-30T21:37:36.621Z,21.50
2022-07-30T21:40:24.542Z,21.40
2022-07-30T21:43:13.061Z,21.30
2022-07-30T21:46:00.013Z,21.30
2022-07-30T21:48:54.803Z,21.30
2022-07-30T21:51:44.518Z,21.10
2022-07-30T21:54:35.011Z,21.00
2022-07-30T21:57:32.396Z,20.90
2022-07-30T22:00:44.610Z,20.90
2022-07-30T22:04:04.648Z,20.90
2022-07-30T22:06:41.627Z,21.00
2022-07-30T22:09:34.387Z,21.10
2022-07-30T22:12:34.807Z,20.90
2022-07-30T22:15:23.146Z,20.90
2022-07-30T22:18:12.362Z,21.00
2022-07-30T22:20:59.079Z,21.10
2022-07-30T22:23:58.224Z,21.10
2022-07-30T22:26:45.585Z,21.10
2022-07-30T22:29:38.107Z,21.20
2022-07-30T22:32:26.466Z,21.30
2022-07-30T22:35:16.453Z,21.20
2022-07-30T22:38:03.485Z,21.20
2022-07-30T22:40:50.060Z,21.30
2022-07-30T22:43:41.055Z,21.20
2022-07-30T22:46:30.386Z,21.10
2022-07-30T22:49:23.759Z,21.10
2022-07-30T22:52:28.556Z,21.10
2022-07-30T22:55:16.415Z,21.00
2022-07-30T22:58:08.881Z,21.10
2022-07-30T23:00:56.213Z,21.20
2022-07-30T23:03:43.005Z,21.30
2022-07-30T23:06:33.110Z,21.40
2022-07-30T23:09:19.965Z,21.50
2022-07-30T23:12:07.347Z,21.50
2022-07-30T23:12:16.886Z,25.00
2022-07-30T23:14:54.756Z,21.50
2022-07-30T23:17:41.753Z,21.50
2022-07-30T23:20:28.375Z,21.60
2022-07-30T23:23:16.752Z,21.40
2022-07-30T23:26:03.925Z,21.50
2022-07-30T23:28:50.823Z,21.50
2022-07-30T23:31:37.806Z,21.20
2022-07-30T23:34:24.872Z,20.80
2022-07-30T23:37:14.825Z,20.80
2022-07-30T23:40:03.169Z,20.50
2022-07-30T23:42:50.810Z,20.40
2022-07-30T23:45:37.874Z,20.20
2022-07-30T23:48:24.579Z,19.90
2022-07-30T23:51:11.176Z,19.90
2022-07-30T23:53:58.195Z,19.90
2022-07-30T23:56:46.393Z,19.90
2022-07-30T23:59:40.561Z,20.10
